createdAt,value
2023-05-07T00:02:00.375Z,5.45
2023-05-07T00:04:27.123Z,4.88
2023-05-07T00:06:53.773Z,4.70
2023-05-07T00:09:20.420Z,4.82
2023-05-07T00:11:46.947Z,4.40
2023-05-07T00:14:13.373Z,4.47
2023-05-07T00:16:44.195Z,5.38
2023-05-07T00:19:10.957Z,5.07
2023-05-07T00:21:37.412Z,4.80
2023-05-07T00:24:03.873Z,5.35
2023-05-07T00:26:30.307Z,5.97
2023-05-07T00:28:57.056Z,5.50
2023-05-07T00:31:23.865Z,5.25
2023-05-07T00:33:50.418Z,5.65
2023-05-07T00:36:16.864Z,6.25
2023-05-07T00:38:43.279Z,6.30
2023-05-07T00:41:09.729Z,5.85
2023-05-07T00:43:36.224Z,5.82
2023-05-07T00:46:02.677Z,6.15
2023-05-07T00:48:29.086Z,6.20
2023-05-07T00:50:55.526Z,6.40
2023-05-07T00:53:21.977Z,6.25
2023-05-07T00:55:48.388Z,7.25
2023-05-07T00:58:14.759Z,7.28
2023-05-07T01:00:41.211Z,5.88
2023-05-07T01:03:07.593Z,6.07
2023-05-07T01:05:34.697Z,6.72
2023-05-07T01:08:01.715Z,8.23
2023-05-07T01:10:28.321Z,7.72
2023-05-07T01:12:54.793Z,8.73
2023-05-07T01:15:21.294Z,8.23
2023-05-07T01:17:47.723Z,7.82
2023-05-07T01:20:14.398Z,7.43
2023-05-07T01:22:41.095Z,7.70
2023-05-07T01:25:07.636Z,7.25
2023-05-07T01:27:34.086Z,7.07
2023-05-07T01:30:00.508Z,6.88
2023-05-07T01:32:27.013Z,6.60
2023-05-07T01:34:56.320Z,6.63
2023-05-07T01:37:22.772Z,6.55
2023-05-07T01:39:49.156Z,6.90
2023-05-07T01:42:15.694Z,6.70
2023-05-07T01:44:42.251Z,6.68
2023-05-07T01:47:09.175Z,6.38
2023-05-07T01:49:35.907Z,7.05
2023-05-07T01:52:02.489Z,6.53
2023-05-07T01:54:28.984Z,6.28
2023-05-07T01:56:57.237Z,6.30
2023-05-07T01:59:24.143Z,5.88
2023-05-07T02:01:50.771Z,6.50
2023-05-07T02:04:17.514Z,6.20
2023-05-07T02:06:44.365Z,5.40
2023-05-07T02:09:11.248Z,6.15
2023-05-07T02:11:37.834Z,5.53
2023-05-07T02:14:04.216Z,6.00
2023-05-07T02:16:30.649Z,6.40
2023-05-07T02:18:57.117Z,6.60
2023-05-07T02:21:23.579Z,6.07
2023-05-07T02:23:49.974Z,6.03
2023-05-07T02:26:16.405Z,6.63
2023-05-07T02:28:42.855Z,6.35
2023-05-07T02:31:09.245Z,6.28
2023-05-07T02:33:35.713Z,6.32
2023-05-07T02:36:02.111Z,7.25
2023-05-07T02:38:28.480Z,6.57
2023-05-07T02:40:54.836Z,6.80
2023-05-07T02:43:21.289Z,5.90
2023-05-07T02:45:47.738Z,7.10
2023-05-07T02:48:14.180Z,7.47
2023-05-07T02:50:40.632Z,7.22
2023-05-07T02:53:07.045Z,7.28
2023-05-07T02:55:33.481Z,6.80
2023-05-07T02:57:59.863Z,7.60
2023-05-07T03:00:26.254Z,6.82
2023-05-07T03:02:52.774Z,7.38
2023-05-07T03:05:19.270Z,6.82
2023-05-07T03:07:45.694Z,6.18
2023-05-07T03:10:12.303Z,7.20
2023-05-07T03:12:38.870Z,6.97
2023-05-07T03:15:05.359Z,7.50
2023-05-07T03:17:31.819Z,7.72
2023-05-07T03:19:58.239Z,7.38
2023-05-07T03:22:24.636Z,7.97
2023-05-07T03:24:51.002Z,7.22
2023-05-07T03:27:17.423Z,8.43
2023-05-07T03:29:43.849Z,8.30
2023-05-07T03:32:10.234Z,8.43
2023-05-07T03:34:36.631Z,7.60
2023-05-07T03:37:03.073Z,6.68
2023-05-07T03:39:29.538Z,8.20
2023-05-07T03:41:56.015Z,6.95
2023-05-07T03:44:22.441Z,7.05
2023-05-07T03:46:48.934Z,5.70
2023-05-07T03:49:15.419Z,6.18
2023-05-07T03:51:42.074Z,6.68
2023-05-07T03:54:08.532Z,8.40
2023-05-07T03:56:34.990Z,7.55
2023-05-07T03:59:01.475Z,7.05
2023-05-07T04:01:28.138Z,8.18
2023-05-07T04:03:54.621Z,9.75
2023-05-07T04:06:21.058Z,10.25
2023-05-07T04:08:47.447Z,10.13
2023-05-07T04:11:13.902Z,9.07
2023-05-07T04:13:40.350Z,8.15
2023-05-07T04:16:06.879Z,8.27
2023-05-07T04:18:33.288Z,10.95
2023-05-07T04:20:59.683Z,10.00
2023-05-07T04:23:26.077Z,10.10
2023-05-07T04:25:52.522Z,10.88
2023-05-07T04:28:18.921Z,10.43
2023-05-07T04:30:45.341Z,9.98
2023-05-07T04:33:12.140Z,8.02
2023-05-07T04:35:38.635Z,9.30
2023-05-07T04:38:05.053Z,9.18
2023-05-07T04:40:31.500Z,8.70
2023-05-07T04:42:57.932Z,10.40
2023-05-07T04:45:24.375Z,8.50
2023-05-07T04:47:50.807Z,9.32
2023-05-07T04:50:17.340Z,9.77
2023-05-07T04:52:43.745Z,10.32
2023-05-07T04:55:10.142Z,9.32
2023-05-07T04:57:36.584Z,9.88
2023-05-07T05:00:03.026Z,11.25
2023-05-07T05:02:29.429Z,10.77
2023-05-07T05:04:55.910Z,10.27
2023-05-07T05:07:22.295Z,11.40
2023-05-07T05:09:48.684Z,11.35
2023-05-07T05:12:15.115Z,11.25
2023-05-07T05:14:41.723Z,10.80
2023-05-07T05:17:08.156Z,10.88
2023-05-07T05:19:34.544Z,11.38
2023-05-07T05:22:00.960Z,10.75
2023-05-07T05:24:27.415Z,10.45
2023-05-07T05:26:53.804Z,10.23
2023-05-07T05:29:20.202Z,9.65
2023-05-07T05:31:46.680Z,9.68
2023-05-07T05:34:13.167Z,11.60
2023-05-07T05:36:39.645Z,12.30
2023-05-07T05:39:06.074Z,11.15
2023-05-07T05:41:32.533Z,10.48
2023-05-07T05:43:59.004Z,10.30
2023-05-07T05:46:25.465Z,10.85
2023-05-07T05:48:51.920Z,10.98
2023-05-07T05:51:18.360Z,11.48
2023-05-07T05:53:44.808Z,11.15
2023-05-07T05:56:11.207Z,11.20
2023-05-07T05:58:37.586Z,12.18
2023-05-07T06:01:04.006Z,11.13
2023-05-07T06:03:30.392Z,10.55
2023-05-07T06:05:56.766Z,9.80
2023-05-07T06:08:23.159Z,10.23
2023-05-07T06:10:49.599Z,11.00
2023-05-07T06:13:16.047Z,12.90
2023-05-07T06:15:42.484Z,12.43
2023-05-07T06:18:08.903Z,12.00
2023-05-07T06:20:35.374Z,10.82
2023-05-07T06:23:01.765Z,10.10
2023-05-07T06:25:28.176Z,10.18
2023-05-07T06:27:54.611Z,10.55
2023-05-07T06:30:20.998Z,10.88
2023-05-07T06:32:47.470Z,11.65
2023-05-07T06:35:13.877Z,10.93
2023-05-07T06:37:40.332Z,10.85
2023-05-07T06:40:06.712Z,11.50
2023-05-07T06:42:33.163Z,11.98
2023-05-07T06:44:59.565Z,13.48
2023-05-07T06:47:26.066Z,13.18
2023-05-07T06:49:52.557Z,11.60
2023-05-07T06:52:18.938Z,12.75
2023-05-07T06:54:45.343Z,14.88
2023-05-07T06:57:11.987Z,13.65
2023-05-07T06:59:38.463Z,13.05
2023-05-07T07:02:05.035Z,13.05
2023-05-07T07:04:31.536Z,11.90
2023-05-07T07:06:58.000Z,11.05
2023-05-07T07:09:24.376Z,11.75
2023-05-07T07:11:50.835Z,11.40
2023-05-07T07:14:17.231Z,11.25
2023-05-07T07:16:43.628Z,13.43
2023-05-07T07:19:10.020Z,12.55
2023-05-07T07:21:36.437Z,11.90
2023-05-07T07:24:02.903Z,11.75
2023-05-07T07:26:29.283Z,12.35
2023-05-07T07:28:55.671Z,12.55
2023-05-07T07:31:22.129Z,11.57
2023-05-07T07:33:48.919Z,12.27
2023-05-07T07:36:15.633Z,12.52
2023-05-07T07:38:42.108Z,11.02
2023-05-07T07:41:08.526Z,11.13
2023-05-07T07:43:34.940Z,11.82
2023-05-07T07:46:01.370Z,12.65
2023-05-07T07:48:27.810Z,11.18
2023-05-07T07:50:54.271Z,12.57
2023-05-07T07:53:20.677Z,13.02
2023-05-07T07:55:47.093Z,12.48
2023-05-07T07:58:13.701Z,11.70
2023-05-07T08:00:40.130Z,12.20
2023-05-07T08:03:06.701Z,11.52
2023-05-07T08:05:33.286Z,14.52
2023-05-07T08:07:59.777Z,13.10
2023-05-07T08:10:26.249Z,11.88
2023-05-07T08:12:52.684Z,12.40
2023-05-07T08:15:19.068Z,10.45
2023-05-07T08:17:45.545Z,11.38
2023-05-07T08:20:12.139Z,12.45
2023-05-07T08:22:38.830Z,13.32
2023-05-07T08:25:05.297Z,11.40
2023-05-07T08:27:31.887Z,12.40
2023-05-07T08:29:58.330Z,12.10
2023-05-07T08:32:24.758Z,11.50
2023-05-07T08:34:51.159Z,12.30
2023-05-07T08:37:17.556Z,12.88
2023-05-07T08:39:44.036Z,14.10
2023-05-07T08:42:10.450Z,13.40
2023-05-07T08:44:36.886Z,12.80
2023-05-07T08:47:03.341Z,12.82
2023-05-07T08:49:29.790Z,13.10
2023-05-07T08:51:56.287Z,12.27
2023-05-07T08:54:22.755Z,11.60
2023-05-07T08:56:49.186Z,11.27
2023-05-07T08:59:15.568Z,10.38
2023-05-07T09:01:42.077Z,11.13
2023-05-07T09:04:08.586Z,11.30
2023-05-07T09:06:34.977Z,10.70
2023-05-07T09:09:01.425Z,10.25
2023-05-07T09:11:27.870Z,12.05
2023-05-07T09:13:54.321Z,11.30
2023-05-07T09:16:20.789Z,11.57
2023-05-07T09:18:47.200Z,11.63
2023-05-07T09:21:13.573Z,11.70
2023-05-07T09:23:40.037Z,13.05
2023-05-07T09:26:07.385Z,12.68
2023-05-07T09:28:34.996Z,11.95
2023-05-07T09:31:01.408Z,11.48
2023-05-07T09:33:27.792Z,10.07
2023-05-07T09:35:54.185Z,10.07
2023-05-07T09:38:20.559Z,10.05
2023-05-07T09:40:47.007Z,9.95
2023-05-07T09:43:13.470Z,10.98
2023-05-07T09:45:39.948Z,10.40
2023-05-07T09:48:06.486Z,10.77
2023-05-07T09:50:33.006Z,10.82
2023-05-07T09:52:59.432Z,9.70
2023-05-07T09:55:25.889Z,9.85
2023-05-07T09:57:52.342Z,9.90
2023-05-07T10:00:18.726Z,11.20
2023-05-07T10:02:45.202Z,11.13
2023-05-07T10:05:11.801Z,11.27
2023-05-07T10:07:38.369Z,10.32
2023-05-07T10:10:04.796Z,11.38
2023-05-07T10:12:31.163Z,11.40
2023-05-07T10:14:57.594Z,10.43
2023-05-07T10:17:24.001Z,9.98
2023-05-07T10:19:50.472Z,11.10
2023-05-07T10:22:16.891Z,11.23
2023-05-07T10:24:43.470Z,12.93
2023-05-07T10:27:09.897Z,11.82
2023-05-07T10:29:36.372Z,12.60
2023-05-07T10:32:02.835Z,11.35
2023-05-07T10:34:29.284Z,9.80
2023-05-07T10:36:55.742Z,10.02
2023-05-07T10:39:22.138Z,8.23
2023-05-07T10:41:48.535Z,8.73
2023-05-07T10:44:15.007Z,8.55
2023-05-07T10:46:41.404Z,8.07
2023-05-07T10:49:07.806Z,8.23
2023-05-07T10:51:34.267Z,7.72
2023-05-07T10:54:00.672Z,7.97
2023-05-07T10:56:27.102Z,7.68
2023-05-07T10:58:53.511Z,8.25
2023-05-07T11:01:20.005Z,8.63
2023-05-07T11:03:46.497Z,7.30
2023-05-07T11:06:13.083Z,8.00
2023-05-07T11:08:39.472Z,8.27
2023-05-07T11:11:07.995Z,8.75
2023-05-07T11:13:34.389Z,9.00
2023-05-07T11:16:00.842Z,7.72
2023-05-07T11:18:27.233Z,7.68
2023-05-07T11:20:53.668Z,7.50
2023-05-07T11:23:20.105Z,8.95
2023-05-07T11:25:46.500Z,6.93
2023-05-07T11:28:12.953Z,8.27
2023-05-07T11:30:39.497Z,8.45
2023-05-07T11:33:05.953Z,7.68
2023-05-07T11:35:33.856Z,8.70
2023-05-07T11:38:02.117Z,7.43
2023-05-07T11:40:28.592Z,7.97
2023-05-07T11:42:55.047Z,7.28
2023-05-07T11:45:21.485Z,7.00
2023-05-07T11:47:47.993Z,7.30
2023-05-07T11:50:14.618Z,6.13
2023-05-07T11:52:41.102Z,6.38
2023-05-07T11:55:07.490Z,6.72
2023-05-07T11:57:33.894Z,6.97
2023-05-07T12:00:00.262Z,6.40
2023-05-07T12:02:26.800Z,7.55
2023-05-07T12:04:53.448Z,6.90
2023-05-07T12:07:19.860Z,7.22
2023-05-07T12:09:46.275Z,6.43
2023-05-07T12:12:12.658Z,6.57
2023-05-07T12:14:39.119Z,6.15
2023-05-07T12:17:05.546Z,6.13
2023-05-07T12:19:32.039Z,5.68
2023-05-07T12:21:58.460Z,5.75
2023-05-07T12:24:24.953Z,6.03
2023-05-07T12:26:51.328Z,6.20
2023-05-07T12:29:17.784Z,5.80
2023-05-07T12:31:44.268Z,6.13
2023-05-07T12:34:10.718Z,6.03
2023-05-07T12:36:37.160Z,5.65
2023-05-07T12:39:03.561Z,5.65
2023-05-07T12:41:30.024Z,5.70
2023-05-07T12:43:56.412Z,5.38
2023-05-07T12:46:22.917Z,6.13
2023-05-07T12:48:49.313Z,5.72
2023-05-07T12:51:15.743Z,5.13
2023-05-07T12:53:42.180Z,5.75
2023-05-07T12:56:08.657Z,5.10
2023-05-07T12:58:35.095Z,5.57
2023-05-07T13:01:01.637Z,5.30
2023-05-07T13:03:28.141Z,6.97
2023-05-07T13:05:58.499Z,5.68
2023-05-07T13:08:25.464Z,4.82
2023-05-07T13:10:51.837Z,6.25
2023-05-07T13:13:18.332Z,5.07
2023-05-07T13:15:44.735Z,4.70
2023-05-07T13:18:11.276Z,5.63
2023-05-07T13:20:37.786Z,5.53
2023-05-07T13:23:04.234Z,6.75
2023-05-07T13:25:30.674Z,5.78
2023-05-07T13:28:09.618Z,5.18
2023-05-07T13:30:37.497Z,5.18
2023-05-07T13:33:03.927Z,5.40
2023-05-07T13:35:30.440Z,5.88
2023-05-07T13:37:56.868Z,6.38
2023-05-07T13:40:23.305Z,7.03
2023-05-07T13:42:49.739Z,5.80
2023-05-07T13:45:16.189Z,6.88
2023-05-07T13:47:42.644Z,5.13
2023-05-07T13:50:09.210Z,5.95
2023-05-07T13:52:35.862Z,6.57
2023-05-07T13:55:02.328Z,5.28
2023-05-07T13:57:28.727Z,5.47
2023-05-07T13:59:55.150Z,5.80
2023-05-07T14:02:21.586Z,5.30
2023-05-07T14:04:48.071Z,6.45
2023-05-07T14:07:14.550Z,5.47
2023-05-07T14:09:40.938Z,5.75
2023-05-07T14:12:07.397Z,5.72
2023-05-07T14:14:33.856Z,5.63
2023-05-07T14:17:00.340Z,5.95
2023-05-07T14:19:26.822Z,4.95
2023-05-07T14:21:53.279Z,5.47
2023-05-07T14:24:34.489Z,6.05
2023-05-07T14:27:03.838Z,5.60
2023-05-07T14:29:30.289Z,5.38
2023-05-07T14:31:56.681Z,6.32
2023-05-07T14:34:23.076Z,6.28
2023-05-07T14:36:49.456Z,5.03
2023-05-07T14:39:15.896Z,5.88
2023-05-07T14:41:42.362Z,5.03
2023-05-07T14:44:08.748Z,5.80
2023-05-07T14:46:35.219Z,5.72
2023-05-07T14:49:01.678Z,4.85
2023-05-07T14:51:28.124Z,5.22
2023-05-07T14:53:54.550Z,4.55
2023-05-07T14:56:20.961Z,5.13
2023-05-07T14:58:47.543Z,4.90
2023-05-07T15:01:14.339Z,5.90
2023-05-07T15:03:40.906Z,5.85
2023-05-07T15:06:07.475Z,6.07
2023-05-07T15:08:33.874Z,5.80
2023-05-07T15:11:00.351Z,5.43
2023-05-07T15:13:26.935Z,5.50
2023-05-07T15:15:53.418Z,5.28
2023-05-07T15:18:22.700Z,4.95
2023-05-07T15:20:49.500Z,6.55
2023-05-07T15:23:15.987Z,5.65
2023-05-07T15:25:42.380Z,6.03
2023-05-07T15:28:08.827Z,4.95
2023-05-07T15:30:35.275Z,4.93
2023-05-07T15:33:01.714Z,5.22
2023-05-07T15:35:28.117Z,5.28
2023-05-07T15:37:54.552Z,5.03
2023-05-07T15:40:21.127Z,4.90
2023-05-07T15:42:47.652Z,5.00
2023-05-07T15:45:14.455Z,4.47
2023-05-07T15:47:40.959Z,5.00
2023-05-07T15:50:07.432Z,5.18
2023-05-07T15:52:33.907Z,5.10
2023-05-07T15:55:00.338Z,4.60
2023-05-07T15:57:26.849Z,4.90
2023-05-07T15:59:53.268Z,4.53
2023-05-07T16:02:20.074Z,4.30
2023-05-07T16:04:46.525Z,4.75
2023-05-07T16:07:13.157Z,4.07
2023-05-07T16:09:39.668Z,5.25
2023-05-07T16:12:06.136Z,4.22
2023-05-07T16:14:32.605Z,4.80
2023-05-07T16:16:59.025Z,4.60
2023-05-07T16:19:26.088Z,4.85
2023-05-07T16:21:52.496Z,4.63
2023-05-07T16:24:19.053Z,4.63
2023-05-07T16:26:45.498Z,4.80
2023-05-07T16:29:11.974Z,4.43
2023-05-07T16:31:38.396Z,4.70
2023-05-07T16:34:04.911Z,4.47
2023-05-07T16:36:31.351Z,4.60
2023-05-07T16:38:57.833Z,4.40
2023-05-07T16:41:24.424Z,5.15
2023-05-07T16:43:50.828Z,4.47
2023-05-07T16:46:17.615Z,4.30
2023-05-07T16:48:44.335Z,5.00
2023-05-07T16:51:10.827Z,4.50
2023-05-07T16:53:37.267Z,5.32
2023-05-07T16:56:03.671Z,5.47
2023-05-07T16:58:30.129Z,5.50
2023-05-07T17:00:56.528Z,4.57
2023-05-07T17:03:23.318Z,4.68
2023-05-07T17:05:49.918Z,5.60
2023-05-07T17:08:16.349Z,6.13
2023-05-07T17:10:42.753Z,5.47
2023-05-07T17:13:09.217Z,4.85
2023-05-07T17:15:35.659Z,5.18
2023-05-07T17:18:02.169Z,5.05
2023-05-07T17:20:28.696Z,4.85
2023-05-07T17:22:55.146Z,5.63
2023-05-07T17:25:21.605Z,5.43
2023-05-07T17:27:48.022Z,4.63
2023-05-07T17:30:16.518Z,4.82
2023-05-07T17:32:42.981Z,4.65
2023-05-07T17:35:09.434Z,4.75
2023-05-07T17:37:35.872Z,4.93
2023-05-07T17:40:02.338Z,4.97
2023-05-07T17:42:28.779Z,4.65
2023-05-07T17:44:55.224Z,4.63
2023-05-07T17:47:21.627Z,4.70
2023-05-07T17:49:48.093Z,5.25
2023-05-07T17:52:14.597Z,4.72
2023-05-07T17:54:41.086Z,4.70
2023-05-07T17:57:07.472Z,4.72
2023-05-07T17:59:33.912Z,5.15
2023-05-07T18:02:00.333Z,4.63
2023-05-07T18:04:26.758Z,4.90
2023-05-07T18:06:53.196Z,5.63
2023-05-07T18:09:19.613Z,4.78
2023-05-07T18:11:46.064Z,5.43
2023-05-07T18:14:12.458Z,5.75
2023-05-07T18:16:38.919Z,5.03
2023-05-07T18:19:05.462Z,5.25
2023-05-07T18:21:31.916Z,5.25
2023-05-07T18:23:58.408Z,5.40
2023-05-07T18:26:24.838Z,5.13
2023-05-07T18:28:51.224Z,5.97
2023-05-07T18:31:17.835Z,5.53
2023-05-07T18:33:44.336Z,5.45
2023-05-07T18:36:10.846Z,4.38
2023-05-07T18:38:37.230Z,5.75
2023-05-07T18:41:03.696Z,5.88
2023-05-07T18:43:30.121Z,5.47
2023-05-07T18:45:56.586Z,5.07
2023-05-07T18:48:23.078Z,4.88
2023-05-07T18:50:49.568Z,5.65
2023-05-07T18:53:15.942Z,5.47
2023-05-07T18:55:42.380Z,5.15
2023-05-07T18:58:08.824Z,5.72
2023-05-07T19:00:35.286Z,4.97
2023-05-07T19:03:01.899Z,5.47
2023-05-07T19:05:28.389Z,5.63
2023-05-07T19:07:54.845Z,5.22
2023-05-07T19:10:21.386Z,5.03
2023-05-07T19:12:48.000Z,4.90
2023-05-07T19:15:14.556Z,5.13
2023-05-07T19:17:41.077Z,4.95
2023-05-07T19:22:38.837Z,4.93
2023-05-07T19:25:05.255Z,4.95
2023-05-07T19:27:31.753Z,4.57
2023-05-07T19:29:58.148Z,5.13
2023-05-07T19:32:24.577Z,5.28
2023-05-07T19:34:50.990Z,5.25
2023-05-07T19:37:17.697Z,5.43
2023-05-07T19:39:44.334Z,5.75
2023-05-07T19:42:10.727Z,5.63
2023-05-07T19:44:37.201Z,5.70
2023-05-07T19:47:03.644Z,5.47
2023-05-07T19:49:30.083Z,5.78
2023-05-07T19:51:56.465Z,5.15
2023-05-07T19:54:22.894Z,6.13
2023-05-07T19:56:49.303Z,5.78
2023-05-07T19:59:15.751Z,5.82
2023-05-07T20:01:42.226Z,5.30
2023-05-07T20:04:08.774Z,5.70
2023-05-07T20:06:35.228Z,5.80
2023-05-07T20:09:01.615Z,5.80
2023-05-07T20:11:28.070Z,5.72
2023-05-07T20:13:54.524Z,6.38
2023-05-07T20:16:21.063Z,6.90
2023-05-07T20:18:47.661Z,6.32
2023-05-07T20:21:14.121Z,6.22
2023-05-07T20:23:40.512Z,5.93
2023-05-07T20:26:06.894Z,5.90
2023-05-07T20:28:33.327Z,6.40
2023-05-07T20:30:59.786Z,6.68
2023-05-07T20:33:26.229Z,6.47
2023-05-07T20:35:52.693Z,6.20
2023-05-07T20:38:19.158Z,7.03
2023-05-07T20:40:45.605Z,7.15
2023-05-07T20:43:12.041Z,7.30
2023-05-07T20:45:38.518Z,7.05
2023-05-07T20:48:05.007Z,7.55
2023-05-07T20:50:31.455Z,7.38
2023-05-07T20:52:57.944Z,7.65
2023-05-07T20:55:24.508Z,7.47
2023-05-07T20:57:50.909Z,7.40
2023-05-07T21:00:17.731Z,7.75
2023-05-07T21:02:44.379Z,7.97
2023-05-07T21:05:10.942Z,7.15
2023-05-07T21:07:37.422Z,7.28
2023-05-07T21:10:03.902Z,7.35
2023-05-07T21:12:30.438Z,6.10
2023-05-07T21:14:56.862Z,6.53
2023-05-07T21:17:23.298Z,7.03
2023-05-07T21:19:49.723Z,7.30
2023-05-07T21:22:16.133Z,6.25
2023-05-07T21:24:42.572Z,5.60
2023-05-07T21:27:09.058Z,6.68
2023-05-07T21:29:35.526Z,6.53
2023-05-07T21:32:01.952Z,6.20
2023-05-07T21:34:28.452Z,5.35
2023-05-07T21:36:54.847Z,6.20
2023-05-07T21:39:21.268Z,5.97
2023-05-07T21:41:47.667Z,5.90
2023-05-07T21:44:14.039Z,5.38
2023-05-07T21:46:40.490Z,5.55
2023-05-07T21:49:06.971Z,5.93
2023-05-07T21:51:33.352Z,5.82
2023-05-07T21:53:59.754Z,5.88
2023-05-07T21:56:26.138Z,5.82
2023-05-07T21:58:52.521Z,6.15
2023-05-07T22:01:18.972Z,6.03
2023-05-07T22:03:45.564Z,6.25
2023-05-07T22:06:12.008Z,5.47
2023-05-07T22:08:38.455Z,5.75
2023-05-07T22:11:04.833Z,5.90
2023-05-07T22:13:31.301Z,5.80
2023-05-07T22:15:58.632Z,5.47
2023-05-07T22:18:25.283Z,5.97
2023-05-07T22:20:51.675Z,5.75
2023-05-07T22:23:18.089Z,6.00
2023-05-07T22:25:44.555Z,6.28
2023-05-07T22:28:11.011Z,5.75
2023-05-07T22:30:37.467Z,6.20
2023-05-07T22:33:03.891Z,6.50
2023-05-07T22:35:30.312Z,5.90
2023-05-07T22:37:56.782Z,6.03
2023-05-07T22:40:23.231Z,6.10
2023-05-07T22:42:49.609Z,5.60
2023-05-07T22:45:16.061Z,5.97
2023-05-07T22:47:42.526Z,5.95
2023-05-07T22:50:09.023Z,6.45
2023-05-07T22:52:35.483Z,6.75
2023-05-07T22:55:01.870Z,6.03
2023-05-07T22:57:28.292Z,6.53
2023-05-07T22:59:54.702Z,6.53
2023-05-07T23:02:21.146Z,7.00
2023-05-07T23:04:47.660Z,6.25
2023-05-07T23:07:14.101Z,6.60
2023-05-07T23:09:40.526Z,6.00
2023-05-07T23:12:06.960Z,6.43
2023-05-07T23:14:33.418Z,6.53
2023-05-07T23:16:59.964Z,6.72
2023-05-07T23:19:26.460Z,7.00
2023-05-07T23:21:52.940Z,6.90
2023-05-07T23:24:19.375Z,6.53
2023-05-07T23:26:45.751Z,7.28
2023-05-07T23:29:12.140Z,6.90
2023-05-07T23:31:38.575Z,6.85
2023-05-07T23:34:05.034Z,7.35
2023-05-07T23:36:31.482Z,7.13
2023-05-07T23:38:57.950Z,7.40
2023-05-07T23:41:24.377Z,7.10
2023-05-07T23:43:50.822Z,6.82
2023-05-07T23:46:17.314Z,7.05
2023-05-07T23:48:43.841Z,7.03
2023-05-07T23:51:10.280Z,7.43
2023-05-07T23:53:36.657Z,7.72
2023-05-07T23:56:03.035Z,7.35
2023-05-07T23:58:29.418Z,7.18
